createdAt,value
2022-08-26T07:09:52.543Z,653.00
2022-08-26T07:10:50.855Z,618.00
2022-08-26T07:11:53.629Z,617.00
2022-08-26T07:12:52.491Z,648.00
2022-08-26T07:14:49.570Z,653.00
2022-08-26T07:15:49.448Z,631.00
2022-08-26T07:16:51.815Z,624.00
2022-08-26T07:17:50.551Z,616.00
2022-08-26T07:18:52.282Z,610.00
2022-08-26T07:19:49.570Z,601.00
2022-08-26T07:20:49.714Z,596.00
2022-08-26T07:21:49.884Z,591.00
2022-08-26T07:22:52.465Z,587.00
2022-08-26T07:23:50.545Z,587.00
2022-08-26T07:24:54.032Z,583.00
2022-08-26T07:25:51.438Z,584.00
2022-08-26T07:26:52.240Z,582.00
2022-08-26T07:27:53.939Z,580.00
2022-08-26T07:28:50.931Z,579.00
2022-08-26T07:30:00.650Z,579.00
2022-08-26T07:30:51.287Z,580.00
2022-08-26T07:31:56.762Z,580.00
2022-08-26T07:32:58.619Z,582.00
2022-08-26T07:34:03.856Z,581.00
2022-08-26T07:34:54.415Z,581.00
2022-08-26T07:35:51.847Z,579.00
2022-08-26T07:36:51.982Z,576.00
2022-08-26T07:37:56.806Z,577.00
2022-08-26T07:38:54.862Z,574.00
2022-08-26T07:39:54.612Z,569.00
2022-08-26T07:40:55.821Z,567.00
2022-08-26T07:41:53.090Z,564.00
2022-08-26T07:42:53.189Z,565.00
2022-08-26T07:43:54.987Z,564.00
2022-08-26T07:44:55.852Z,562.00
2022-08-26T07:45:53.317Z,560.00
2022-08-26T07:46:53.563Z,558.00
2022-08-26T07:47:54.488Z,557.00
2022-08-26T07:48:53.572Z,557.00
2022-08-26T07:49:55.401Z,560.00
2022-08-26T07:50:57.935Z,559.00
2022-08-26T07:51:54.124Z,560.00
2022-08-26T07:52:58.398Z,559.00
2022-08-26T07:53:55.116Z,557.00
2022-08-26T07:54:54.558Z,558.00
2022-08-26T07:55:55.314Z,558.00
2022-08-26T07:57:14.058Z,557.00
2022-08-26T07:57:56.791Z,555.00
2022-08-26T07:58:55.114Z,552.00
2022-08-26T07:59:55.559Z,553.00
2022-08-26T08:00:59.537Z,554.00
2022-08-26T08:01:57.276Z,553.00
2022-08-26T08:02:55.628Z,554.00
2022-08-26T08:03:56.500Z,552.00
2022-08-26T08:04:55.946Z,551.00
2022-08-26T08:05:56.256Z,550.00
2022-08-26T08:06:59.988Z,550.00
2022-08-26T08:08:26.633Z,549.00
2022-08-26T08:09:18.641Z,548.00
2022-08-26T08:10:00.258Z,547.00
2022-08-26T08:10:56.838Z,548.00
2022-08-26T08:11:58.497Z,548.00
2022-08-26T08:12:57.647Z,547.00
2022-08-26T08:13:57.814Z,548.00
2022-08-26T08:14:59.044Z,546.00
2022-08-26T08:15:58.218Z,545.00
2022-08-26T08:16:57.420Z,544.00
2022-08-26T08:18:00.677Z,543.00
2022-08-26T08:18:57.676Z,539.00
2022-08-26T08:19:58.564Z,536.00
2022-08-26T08:21:10.846Z,537.00
2022-08-26T08:21:59.027Z,534.00
2022-08-26T08:22:59.285Z,537.00
2022-08-26T08:23:59.273Z,537.00
2022-08-26T08:24:58.396Z,537.00
2022-08-26T08:25:58.518Z,539.00
2022-08-26T08:26:58.646Z,538.00
2022-08-26T08:27:59.923Z,540.00
2022-08-26T08:29:03.205Z,540.00
2022-08-26T08:29:59.098Z,539.00
2022-08-26T08:31:00.279Z,540.00
2022-08-26T08:31:59.913Z,537.00
2022-08-26T08:32:59.443Z,533.00
2022-08-26T08:34:00.725Z,531.00
2022-08-26T08:34:59.645Z,531.00
2022-08-26T08:36:00.909Z,530.00
2022-08-26T08:37:00.104Z,530.00
2022-08-26T08:38:00.993Z,530.00
2022-08-26T08:39:01.794Z,531.00
2022-08-26T08:40:00.454Z,529.00
2022-08-26T08:41:05.485Z,527.00
2022-08-26T08:42:00.741Z,527.00
2022-08-26T08:43:00.724Z,526.00
2022-08-26T08:44:02.434Z,524.00
2022-08-26T08:45:02.708Z,523.00
2022-08-26T08:46:01.208Z,528.00
2022-08-26T08:47:01.184Z,528.00
2022-08-26T08:48:02.337Z,531.00
2022-08-26T08:49:02.394Z,533.00
2022-08-26T08:50:03.813Z,535.00
2022-08-26T08:51:01.664Z,536.00
2022-08-26T08:52:04.241Z,534.00
2022-08-26T08:53:02.064Z,534.00
2022-08-26T08:54:03.182Z,534.00
2022-08-26T08:55:02.183Z,535.00
2022-08-26T08:56:02.271Z,535.00
2022-08-26T08:57:03.563Z,533.00
2022-08-26T08:58:04.851Z,531.00
2022-08-26T08:59:03.713Z,528.00
2022-08-26T09:00:04.057Z,526.00
2022-08-26T09:01:02.937Z,526.00
2022-08-26T09:02:04.238Z,526.00
2022-08-26T09:03:04.920Z,526.00
2022-08-26T09:04:03.964Z,527.00
2022-08-26T09:05:04.949Z,524.00
2022-08-26T09:06:05.353Z,522.00
2022-08-26T09:07:07.233Z,519.00
2022-08-26T09:08:03.853Z,520.00
2022-08-26T09:09:05.882Z,521.00
2022-08-26T09:10:06.083Z,521.00
2022-08-26T09:11:09.964Z,521.00
2022-08-26T09:12:07.271Z,523.00
2022-08-26T09:13:05.345Z,524.00
2022-08-26T09:14:04.492Z,524.00
2022-08-26T09:15:08.760Z,524.00
2022-08-26T09:16:05.733Z,524.00
2022-08-26T09:17:07.057Z,526.00
2022-08-26T09:18:07.278Z,525.00
2022-08-26T09:19:06.863Z,527.00
2022-08-26T09:20:06.281Z,526.00
2022-08-26T09:21:07.012Z,525.00
2022-08-26T09:22:09.516Z,527.00
2022-08-26T09:23:05.753Z,526.00
2022-08-26T09:24:05.879Z,525.00
2022-08-26T09:25:06.182Z,523.00
2022-08-26T09:26:10.288Z,522.00
2022-08-26T09:27:08.279Z,520.00
2022-08-26T09:28:06.637Z,521.00
2022-08-26T09:29:07.558Z,520.00
2022-08-26T09:30:07.223Z,519.00
2022-08-26T09:31:11.184Z,517.00
2022-08-26T09:32:07.952Z,513.00
2022-08-26T09:33:10.908Z,512.00
2022-08-26T09:34:12.583Z,516.00
2022-08-26T09:35:09.865Z,517.00
2022-08-26T09:36:10.599Z,520.00
2022-08-26T09:37:15.786Z,521.00
2022-08-26T09:38:14.892Z,521.00
2022-08-26T09:39:08.682Z,519.00
2022-08-26T09:40:07.817Z,517.00
2022-08-26T09:41:10.095Z,517.00
2022-08-26T09:42:11.267Z,518.00
2022-08-26T09:43:08.377Z,519.00
2022-08-26T09:44:08.568Z,518.00
2022-08-26T09:45:09.499Z,520.00
2022-08-26T09:46:09.563Z,520.00
2022-08-26T09:47:16.604Z,519.00
2022-08-26T09:48:12.332Z,515.00
2022-08-26T09:49:10.418Z,511.00
2022-08-26T09:50:14.320Z,508.00
2022-08-26T09:51:13.657Z,508.00
2022-08-26T09:52:09.693Z,507.00
2022-08-26T09:53:13.209Z,507.00
2022-08-26T09:54:11.501Z,508.00
2022-08-26T09:55:11.669Z,509.00
2022-08-26T09:56:11.670Z,507.00
2022-08-26T09:57:10.160Z,505.00
2022-08-26T09:58:12.011Z,506.00
2022-08-26T09:59:11.037Z,507.00
2022-08-26T10:00:10.480Z,505.00
2022-08-26T10:01:10.678Z,503.00
2022-08-26T10:12:51.475Z,539.00
2022-08-26T10:13:53.725Z,527.00
2022-08-26T10:14:51.658Z,523.00
2022-08-26T10:15:51.768Z,517.00
2022-08-26T10:16:51.953Z,513.00
2022-08-26T10:17:53.627Z,514.00
2022-08-26T10:18:54.676Z,515.00
2022-08-26T10:19:57.091Z,521.00
2022-08-26T10:20:52.461Z,519.00
2022-08-26T10:21:56.163Z,516.00
2022-08-26T10:22:52.716Z,514.00
2022-08-26T10:23:53.550Z,509.00
2022-08-26T10:24:55.592Z,508.00
2022-08-26T10:25:53.295Z,509.00
2022-08-26T10:26:53.430Z,507.00
2022-08-26T10:27:55.155Z,506.00
2022-08-26T10:28:54.319Z,505.00
2022-08-26T10:30:02.996Z,506.00
2022-08-26T10:30:54.639Z,506.00
2022-08-26T10:31:54.861Z,504.00
2022-08-26T10:32:56.798Z,504.00
2022-08-26T10:33:58.794Z,502.00
2022-08-26T10:34:55.042Z,501.00
2022-08-26T10:35:57.064Z,504.00
2022-08-26T10:37:14.292Z,503.00
2022-08-26T10:37:55.684Z,500.00
2022-08-26T10:38:55.813Z,500.00
2022-08-26T10:39:58.698Z,500.00
2022-08-26T10:40:56.094Z,501.00
2022-08-26T10:41:57.864Z,501.00
2022-08-26T10:42:56.632Z,502.00
2022-08-26T10:43:56.921Z,502.00
2022-08-26T10:44:58.640Z,502.00
2022-08-26T10:45:55.772Z,503.00
2022-08-26T10:46:57.223Z,503.00
2022-08-26T10:47:55.971Z,503.00
2022-08-26T10:48:59.906Z,500.00
2022-08-26T10:50:00.469Z,500.00
2022-08-26T10:50:57.473Z,500.00
2022-08-26T10:51:56.508Z,498.00
2022-08-26T10:52:56.659Z,497.00
2022-08-26T10:53:58.382Z,499.00
2022-08-26T10:54:56.792Z,498.00
2022-08-26T10:55:58.577Z,497.00
2022-08-26T10:56:58.039Z,497.00
2022-08-26T10:57:57.948Z,497.00
2022-08-26T10:58:59.024Z,499.00
2022-08-26T10:59:57.533Z,500.00
2022-08-26T11:00:57.619Z,498.00
2022-08-26T11:01:59.444Z,499.00
2022-08-26T11:02:58.731Z,499.00
2022-08-26T11:04:01.262Z,498.00
2022-08-26T11:05:02.421Z,497.00
2022-08-26T11:05:59.235Z,498.00
2022-08-26T11:06:59.345Z,497.00
2022-08-26T11:07:59.314Z,496.00
2022-08-26T11:09:01.591Z,498.00
2022-08-26T11:10:01.231Z,497.00
2022-08-26T11:10:59.223Z,498.00
2022-08-26T11:11:59.003Z,499.00
2022-08-26T11:13:00.998Z,502.00
2022-08-26T11:13:59.242Z,502.00
2022-08-26T11:15:00.216Z,501.00
2022-08-26T11:16:02.421Z,502.00
2022-08-26T11:17:07.033Z,501.00
2022-08-26T11:18:10.785Z,498.00
2022-08-26T11:18:59.903Z,496.00
2022-08-26T11:20:07.401Z,493.00
2022-08-26T11:21:01.075Z,493.00
2022-08-26T11:22:01.016Z,491.00
2022-08-26T11:23:01.210Z,490.00
2022-08-26T11:24:01.330Z,492.00
2022-08-26T11:25:06.500Z,493.00
2022-08-26T11:26:00.875Z,494.00
2022-08-26T11:27:01.851Z,493.00
2022-08-26T11:28:01.989Z,491.00
2022-08-26T11:29:01.110Z,491.00
2022-08-26T11:30:02.932Z,492.00
2022-08-26T11:31:01.372Z,491.00
2022-08-26T11:32:01.614Z,493.00
2022-08-26T11:33:01.602Z,489.00
2022-08-26T11:34:03.341Z,487.00
2022-08-26T11:35:01.826Z,489.00
2022-08-26T11:36:12.038Z,488.00
2022-08-26T11:37:03.142Z,486.00
2022-08-26T11:38:04.317Z,486.00
2022-08-26T11:39:05.440Z,486.00
2022-08-26T11:40:03.054Z,488.00
2022-08-26T11:41:04.019Z,487.00
2022-08-26T11:42:02.714Z,489.00
2022-08-26T11:43:04.431Z,492.00
2022-08-26T11:44:06.109Z,491.00
2022-08-26T11:45:05.698Z,491.00
2022-08-26T11:46:04.163Z,492.00
2022-08-26T11:47:04.240Z,491.00
2022-08-26T11:48:06.592Z,491.00
2022-08-26T11:49:04.559Z,493.00
2022-08-26T11:50:06.759Z,492.00
2022-08-26T11:51:04.622Z,491.00
2022-08-26T11:52:04.781Z,491.00
2022-08-26T11:53:06.409Z,490.00
2022-08-26T11:54:04.260Z,490.00
2022-08-26T11:55:05.982Z,489.00
2022-08-26T11:56:04.559Z,489.00
2022-08-26T11:57:07.950Z,490.00
2022-08-26T11:58:06.940Z,487.00
2022-08-26T11:59:04.939Z,488.00
2022-08-26T12:00:08.409Z,486.00
2022-08-26T12:01:09.777Z,486.00
2022-08-26T12:02:05.292Z,485.00
2022-08-26T12:03:05.643Z,486.00
2022-08-26T12:04:05.697Z,486.00
2022-08-26T12:05:07.307Z,486.00
2022-08-26T12:06:05.882Z,487.00
2022-08-26T12:07:09.051Z,488.00
2022-08-26T12:08:08.121Z,488.00
2022-08-26T12:09:06.320Z,486.00
2022-08-26T12:10:09.467Z,484.00
2022-08-26T12:11:07.318Z,482.00
2022-08-26T12:12:09.916Z,482.00
2022-08-26T12:13:08.489Z,482.00
2022-08-26T12:14:08.728Z,481.00
2022-08-26T12:15:08.969Z,481.00
2022-08-26T12:16:07.205Z,481.00
2022-08-26T12:17:07.291Z,482.00
2022-08-26T12:18:07.581Z,479.00
2022-08-26T12:19:07.611Z,477.00
2022-08-26T12:20:09.308Z,477.00
2022-08-26T12:21:07.805Z,476.00
2022-08-26T12:22:09.546Z,474.00
2022-08-26T12:23:08.072Z,475.00
2022-08-26T12:24:08.161Z,476.00
2022-08-26T12:25:08.288Z,477.00
2022-08-26T12:26:10.451Z,477.00
2022-08-26T12:27:08.618Z,474.00
2022-08-26T12:28:08.888Z,473.00
2022-08-26T12:29:19.662Z,473.00
2022-08-26T12:30:12.496Z,473.00
2022-08-26T12:31:10.723Z,475.00
2022-08-26T12:32:09.238Z,473.00
2022-08-26T12:33:22.205Z,474.00
2022-08-26T12:34:18.188Z,475.00
2022-08-26T12:35:11.409Z,475.00
2022-08-26T12:36:12.900Z,476.00
2022-08-26T12:37:10.080Z,480.00
2022-08-26T12:38:10.241Z,481.00
2022-08-26T12:39:11.828Z,483.00
2022-08-26T12:40:10.419Z,484.00
2022-08-26T12:41:12.038Z,482.00
2022-08-26T12:42:10.542Z,482.00
2022-08-26T12:43:10.689Z,482.00
2022-08-26T12:44:10.856Z,479.00
2022-08-26T12:45:10.986Z,479.00
2022-08-26T12:46:12.528Z,477.00
2022-08-26T12:47:11.276Z,480.00
2022-08-26T12:48:11.387Z,480.00
2022-08-26T12:49:12.608Z,480.00
2022-08-26T12:50:11.637Z,479.00
2022-08-26T12:51:13.390Z,479.00
2022-08-26T12:52:13.615Z,481.00
2022-08-26T12:53:11.977Z,482.00
2022-08-26T12:54:12.142Z,482.00
2022-08-26T12:55:12.288Z,481.00
2022-08-26T12:56:14.026Z,479.00
2022-08-26T12:57:14.261Z,478.00
2022-08-26T12:58:12.626Z,477.00
2022-08-26T12:59:14.644Z,478.00
2022-08-26T13:00:12.848Z,477.00
2022-08-26T13:01:13.088Z,475.00
2022-08-26T13:02:14.812Z,475.00
2022-08-26T13:03:13.227Z,474.00
2022-08-26T13:04:14.946Z,474.00
2022-08-26T13:05:13.556Z,474.00
2022-08-26T13:06:16.095Z,475.00
2022-08-26T13:07:15.388Z,477.00
2022-08-26T13:08:13.919Z,478.00
2022-08-26T13:09:15.639Z,478.00
2022-08-26T13:10:14.177Z,478.00
2022-08-26T13:11:14.315Z,480.00
2022-08-26T13:12:14.485Z,478.00
2022-08-26T13:13:15.576Z,477.00
2022-08-26T13:14:21.205Z,474.00
2022-08-26T13:15:17.536Z,472.00
2022-08-26T13:16:15.830Z,470.00
2022-08-26T13:17:15.156Z,471.00
2022-08-26T13:18:16.896Z,470.00
2022-08-26T13:19:15.419Z,470.00
2022-08-26T13:20:17.145Z,471.00
2022-08-26T13:21:15.623Z,470.00
2022-08-26T13:22:17.365Z,470.00
2022-08-26T13:23:16.080Z,466.00
2022-08-26T13:24:16.079Z,467.00
2022-08-26T13:25:19.673Z,465.00
2022-08-26T13:26:16.346Z,466.00
2022-08-26T13:27:16.498Z,465.00
2022-08-26T13:28:16.651Z,466.00
2022-08-26T13:29:17.486Z,467.00
2022-08-26T13:30:18.681Z,468.00
2022-08-26T13:31:17.062Z,470.00
2022-08-26T13:32:17.187Z,473.00
2022-08-26T13:33:17.285Z,473.00
2022-08-26T13:34:17.405Z,470.00
2022-08-26T13:35:19.136Z,470.00
2022-08-26T13:36:19.386Z,466.00
2022-08-26T13:37:17.795Z,466.00
2022-08-26T13:38:30.899Z,463.00
2022-08-26T13:39:19.080Z,465.00
2022-08-26T13:40:19.878Z,467.00
2022-08-26T13:41:18.344Z,465.00
2022-08-26T13:42:19.524Z,464.00
2022-08-26T13:43:20.235Z,465.00
2022-08-26T13:44:18.754Z,464.00
2022-08-26T13:45:18.895Z,464.00
2022-08-26T13:46:20.743Z,464.00
2022-08-26T13:47:19.134Z,461.00
2022-08-26T13:48:21.550Z,463.00
2022-08-26T13:49:19.408Z,466.00
2022-08-26T13:50:19.539Z,466.00
2022-08-26T13:51:21.279Z,466.00
2022-08-26T13:52:25.492Z,465.00
2022-08-26T13:53:20.945Z,466.00
2022-08-26T13:54:20.079Z,465.00
2022-08-26T13:55:20.214Z,465.00
2022-08-26T13:56:22.026Z,463.00
2022-08-26T13:57:20.492Z,463.00
2022-08-26T13:58:20.609Z,463.00
2022-08-26T13:59:20.754Z,464.00
2022-08-26T14:00:22.520Z,465.00
2022-08-26T14:01:21.987Z,463.00
2022-08-26T14:02:21.172Z,462.00
2022-08-26T14:03:23.007Z,459.00
2022-08-26T14:04:27.171Z,459.00
2022-08-26T14:05:24.134Z,459.00
2022-08-26T14:06:21.688Z,458.00
2022-08-26T14:07:21.837Z,459.00
2022-08-26T14:08:21.999Z,461.00
2022-08-26T14:09:23.797Z,462.00
2022-08-26T14:10:22.266Z,464.00
2022-08-26T14:11:22.415Z,463.00
2022-08-26T14:12:22.574Z,463.00
2022-08-26T14:13:22.692Z,461.00
2022-08-26T14:14:24.421Z,461.00
2022-08-26T14:15:22.947Z,461.00
2022-08-26T14:16:24.736Z,460.00
2022-08-26T14:17:23.206Z,459.00
2022-08-26T14:18:24.952Z,459.00
2022-08-26T14:19:25.176Z,461.00
2022-08-26T14:20:24.390Z,461.00
2022-08-26T14:21:25.370Z,462.00
2022-08-26T14:22:24.702Z,460.00
2022-08-26T14:23:25.048Z,458.00
2022-08-26T14:24:24.143Z,458.00
2022-08-26T14:25:25.863Z,456.00
2022-08-26T14:26:28.519Z,454.00
2022-08-26T14:27:25.544Z,452.00
2022-08-26T14:29:26.374Z,452.00
2022-08-26T14:30:24.907Z,453.00
2022-08-26T14:31:25.160Z,453.00
2022-08-26T14:32:25.160Z,454.00
2022-08-26T14:33:26.924Z,452.00
2022-08-26T14:34:25.415Z,453.00
2022-08-26T14:35:25.543Z,455.00
2022-08-26T14:36:25.711Z,453.00
2022-08-26T14:37:25.852Z,451.00
2022-08-26T14:38:27.582Z,449.00
2022-08-26T14:39:26.073Z,447.00
2022-08-26T14:40:26.340Z,449.00
2022-08-26T14:41:26.313Z,448.00
2022-08-26T14:42:26.470Z,450.00
2022-08-26T14:43:29.224Z,452.00
2022-08-26T14:44:28.469Z,452.00
2022-08-26T14:45:28.725Z,450.00
2022-08-26T14:46:27.090Z,449.00
2022-08-26T14:47:28.822Z,448.00
2022-08-26T14:48:29.045Z,447.00
2022-08-26T14:49:27.451Z,447.00
2022-08-26T14:50:29.143Z,446.00
2022-08-26T14:51:27.638Z,445.00
2022-08-26T14:52:27.754Z,445.00
2022-08-26T14:53:27.850Z,443.00
2022-08-26T14:54:29.642Z,444.00
2022-08-26T14:55:28.113Z,444.00
2022-08-26T14:56:28.274Z,445.00
2022-08-26T14:57:30.018Z,445.00
2022-08-26T14:58:30.956Z,443.00
2022-08-26T14:59:29.651Z,443.00
2022-08-26T15:00:28.741Z,443.00
2022-08-26T15:01:31.990Z,445.00
2022-08-26T15:02:33.281Z,444.00
2022-08-26T15:03:30.991Z,444.00
2022-08-26T15:04:29.299Z,443.00
2022-08-26T15:05:32.474Z,444.00
2022-08-26T15:06:29.542Z,443.00
2022-08-26T15:07:32.751Z,441.00
2022-08-26T15:08:29.802Z,439.00
2022-08-26T15:09:31.567Z,438.00
2022-08-26T15:10:30.829Z,437.00
2022-08-26T15:11:30.233Z,436.00
2022-08-26T15:12:31.982Z,437.00
2022-08-26T15:13:30.513Z,436.00
2022-08-26T15:14:32.991Z,439.00
2022-08-26T15:15:31.732Z,441.00
2022-08-26T15:16:30.943Z,440.00
2022-08-26T15:17:32.642Z,437.00
2022-08-26T15:18:32.186Z,436.00
2022-08-26T15:19:31.304Z,437.00
2022-08-26T15:21:31.595Z,440.00
2022-08-26T15:22:33.304Z,440.00
2022-08-26T15:23:31.814Z,443.00
2022-08-26T15:24:32.915Z,440.00
2022-08-26T15:25:33.641Z,438.00
2022-08-26T15:26:32.194Z,439.00
2022-08-26T15:27:32.313Z,438.00
2022-08-26T15:28:32.446Z,440.00
2022-08-26T15:29:36.296Z,438.00
2022-08-26T15:30:34.261Z,437.00
2022-08-26T15:31:34.582Z,437.00
2022-08-26T15:32:32.901Z,438.00
2022-08-26T15:33:33.078Z,436.00
2022-08-26T15:34:33.162Z,436.00
2022-08-26T15:35:35.641Z,436.00
2022-08-26T15:36:33.413Z,439.00
2022-08-26T15:37:33.558Z,440.00
2022-08-26T15:38:35.291Z,439.00
2022-08-26T15:39:35.551Z,437.00
2022-08-26T15:40:34.055Z,437.00
2022-08-26T15:41:35.000Z,436.00
2022-08-26T15:42:34.181Z,435.00
2022-08-26T15:43:35.920Z,435.00
2022-08-26T15:44:34.439Z,431.00
2022-08-26T15:45:34.594Z,432.00
2022-08-26T15:46:37.436Z,433.00
2022-08-26T15:47:48.394Z,432.00
2022-08-26T15:48:37.639Z,430.00
2022-08-26T15:49:35.130Z,430.00
2022-08-26T15:50:36.881Z,432.00
2022-08-26T15:51:45.779Z,433.00
2022-08-26T15:52:36.529Z,436.00
2022-08-26T15:53:37.262Z,437.00
2022-08-26T15:54:36.773Z,435.00
2022-08-26T15:55:35.905Z,435.00
2022-08-26T15:56:37.623Z,437.00
2022-08-26T15:57:36.205Z,437.00
2022-08-26T15:58:36.349Z,437.00
2022-08-26T15:59:36.502Z,435.00
2022-08-26T16:00:36.646Z,437.00
2022-08-26T16:12:10.407Z,484.00
2022-08-26T16:13:12.961Z,459.00
2022-08-26T16:14:11.751Z,455.00
2022-08-26T16:15:12.458Z,455.00
2022-08-26T16:16:12.773Z,454.00
2022-08-26T16:17:11.067Z,454.00
2022-08-26T16:18:11.108Z,451.00
2022-08-26T16:19:12.818Z,449.00
2022-08-26T16:20:11.410Z,450.00
2022-08-26T16:21:13.149Z,450.00
2022-08-26T16:22:11.697Z,451.00
2022-08-26T16:23:11.787Z,446.00
2022-08-26T16:24:13.033Z,444.00
2022-08-26T16:25:13.745Z,445.00
2022-08-26T16:26:12.207Z,444.00
2022-08-26T16:27:13.932Z,443.00
2022-08-26T16:28:12.498Z,443.00
2022-08-26T16:29:12.650Z,444.00
2022-08-26T16:30:14.378Z,444.00
2022-08-26T16:31:12.986Z,446.00
2022-08-26T16:32:13.058Z,446.00
2022-08-26T16:33:13.208Z,447.00
2022-08-26T16:34:14.358Z,447.00
2022-08-26T16:35:15.107Z,444.00
2022-08-26T16:36:15.344Z,445.00
2022-08-26T16:37:15.567Z,446.00
2022-08-26T16:38:15.806Z,446.00
2022-08-26T16:39:14.027Z,445.00
2022-08-26T16:40:14.167Z,444.00
2022-08-26T16:41:15.837Z,445.00
2022-08-26T16:42:16.076Z,446.00
2022-08-26T16:43:15.317Z,445.00
2022-08-26T16:44:14.701Z,446.00
2022-08-26T16:45:14.864Z,445.00
2022-08-26T16:46:16.630Z,446.00
2022-08-26T16:47:16.840Z,451.00
2022-08-26T16:48:17.077Z,450.00
2022-08-26T16:49:15.377Z,453.00
2022-08-26T16:50:15.526Z,452.00
2022-08-26T16:51:15.687Z,452.00
2022-08-26T16:52:15.807Z,449.00
2022-08-26T16:53:16.558Z,449.00
2022-08-26T16:54:16.017Z,452.00
2022-08-26T16:55:16.132Z,450.00
2022-08-26T16:56:16.890Z,450.00
2022-08-26T16:57:16.376Z,449.00
2022-08-26T16:58:17.134Z,448.00
2022-08-26T16:59:16.653Z,448.00
2022-08-26T17:00:16.795Z,447.00
2022-08-26T17:01:17.938Z,450.00
2022-08-26T17:02:18.674Z,450.00
2022-08-26T17:03:18.885Z,450.00
2022-08-26T17:04:18.095Z,449.00
2022-08-26T17:05:18.255Z,449.00
2022-08-26T17:06:18.429Z,448.00
2022-08-26T17:07:18.575Z,449.00
2022-08-26T17:08:28.416Z,448.00
2022-08-26T17:09:19.056Z,449.00
2022-08-26T17:10:18.174Z,449.00
2022-08-26T17:11:18.275Z,449.00
2022-08-26T17:12:20.033Z,448.00
2022-08-26T17:13:29.678Z,445.00
2022-08-26T17:14:19.709Z,444.00
2022-08-26T17:15:18.826Z,443.00
2022-08-26T17:16:21.281Z,446.00
2022-08-26T17:17:19.105Z,448.00
2022-08-26T17:18:20.846Z,449.00
2022-08-26T17:19:19.374Z,447.00
2022-08-26T17:20:19.521Z,446.00
2022-08-26T17:21:20.244Z,445.00
2022-08-26T17:22:19.806Z,446.00
2022-08-26T17:23:19.926Z,447.00
2022-08-26T17:24:20.032Z,448.00
2022-08-26T17:25:20.194Z,448.00
2022-08-26T17:26:21.932Z,447.00
2022-08-26T17:27:20.462Z,446.00
2022-08-26T17:28:20.595Z,445.00
2022-08-26T17:29:20.755Z,447.00
2022-08-26T17:30:20.893Z,449.00
2022-08-26T17:31:22.650Z,450.00
2022-08-26T17:32:21.146Z,453.00
2022-08-26T17:33:24.671Z,453.00
2022-08-26T17:34:21.399Z,453.00
2022-08-26T17:35:21.539Z,453.00
2022-08-26T17:36:21.674Z,450.00
2022-08-26T17:37:23.387Z,449.00
2022-08-26T17:38:21.901Z,448.00
2022-08-26T17:39:23.634Z,447.00
2022-08-26T17:40:22.373Z,446.00
2022-08-26T17:41:23.976Z,445.00
2022-08-26T17:42:22.439Z,447.00
2022-08-26T17:43:23.580Z,445.00
2022-08-26T17:44:22.703Z,446.00
2022-08-26T17:45:22.850Z,444.00
2022-08-26T17:46:24.690Z,443.00
2022-08-26T17:47:23.107Z,445.00
2022-08-26T17:48:23.254Z,447.00
2022-08-26T17:49:23.404Z,449.00
2022-08-26T17:50:23.560Z,452.00
2022-08-26T17:51:25.284Z,449.00
2022-08-26T17:52:23.812Z,447.00
2022-08-26T17:53:23.956Z,448.00
2022-08-26T17:54:24.130Z,447.00
2022-08-26T17:55:24.245Z,447.00
2022-08-26T17:56:24.405Z,446.00
2022-08-26T17:57:26.120Z,448.00
2022-08-26T17:58:24.672Z,450.00
2022-08-26T17:59:30.428Z,449.00
2022-08-26T18:00:24.963Z,449.00
2022-08-26T18:01:25.131Z,448.00
2022-08-26T18:02:25.267Z,445.00
2022-08-26T18:03:26.959Z,448.00
2022-08-26T18:04:25.543Z,447.00
2022-08-26T18:05:25.606Z,447.00
2022-08-26T18:06:25.737Z,449.00
2022-08-26T18:07:28.434Z,446.00
2022-08-26T18:08:26.815Z,444.00
2022-08-26T18:09:26.962Z,442.00
2022-08-26T18:10:27.123Z,439.00
2022-08-26T18:11:27.272Z,438.00
2022-08-26T18:12:29.624Z,439.00
2022-08-26T18:13:27.610Z,440.00
2022-08-26T18:14:29.834Z,438.00
2022-08-26T18:15:28.631Z,438.00
2022-08-26T18:16:26.991Z,437.00
2022-08-26T18:17:27.131Z,438.00
2022-08-26T18:18:27.270Z,440.00
2022-08-26T18:19:27.425Z,440.00
2022-08-26T18:20:29.151Z,441.00
2022-08-26T18:21:27.742Z,442.00
2022-08-26T18:22:27.864Z,441.00
2022-08-26T18:23:29.582Z,443.00
2022-08-26T18:24:28.105Z,443.00
2022-08-26T18:25:29.823Z,444.00
2022-08-26T18:26:28.399Z,442.00
2022-08-26T18:27:30.161Z,443.00
2022-08-26T18:28:28.661Z,441.00
2022-08-26T18:29:28.779Z,443.00
2022-08-26T18:30:28.905Z,440.00
2022-08-26T18:31:29.137Z,438.00
2022-08-26T18:32:30.253Z,440.00
2022-08-26T18:33:30.488Z,438.00
2022-08-26T18:34:31.741Z,439.00
2022-08-26T18:35:29.574Z,439.00
2022-08-26T18:36:29.701Z,440.00
2022-08-26T18:37:31.555Z,439.00
2022-08-26T18:38:29.960Z,435.00
2022-08-26T18:39:31.691Z,435.00
2022-08-26T18:40:30.255Z,434.00
2022-08-26T18:41:30.320Z,433.00
2022-08-26T18:42:30.461Z,436.00
2022-08-26T18:43:30.669Z,434.00
2022-08-26T18:44:30.762Z,435.00
2022-08-26T18:45:32.509Z,438.00
2022-08-26T18:46:32.816Z,438.00
2022-08-26T18:47:31.181Z,436.00
2022-08-26T18:48:31.378Z,439.00
2022-08-26T18:49:33.089Z,440.00
2022-08-26T18:50:33.304Z,441.00
2022-08-26T18:51:31.798Z,440.00
2022-08-26T18:52:31.925Z,440.00
2022-08-26T18:53:33.139Z,441.00
2022-08-26T18:54:32.154Z,440.00
2022-08-26T18:55:35.330Z,440.00
2022-08-26T18:56:32.370Z,441.00
2022-08-26T18:57:32.480Z,441.00
2022-08-26T18:58:32.599Z,441.00
2022-08-26T18:59:32.719Z,443.00
2022-08-26T19:00:35.905Z,445.00
2022-08-26T19:01:33.102Z,445.00
2022-08-26T19:02:33.251Z,446.00
2022-08-26T19:03:33.221Z,446.00
2022-08-26T19:04:36.398Z,445.00
2022-08-26T19:05:34.380Z,444.00
2022-08-26T19:06:34.541Z,441.00
2022-08-26T19:07:39.390Z,443.00
2022-08-26T19:08:36.518Z,442.00
2022-08-26T19:09:35.990Z,441.00
2022-08-26T19:10:34.920Z,440.00
2022-08-26T19:11:41.718Z,440.00
2022-08-26T19:12:36.271Z,439.00
2022-08-26T19:13:36.249Z,439.00
2022-08-26T19:14:34.789Z,436.00
2022-08-26T19:15:36.539Z,437.00
2022-08-26T19:16:35.079Z,435.00
2022-08-26T19:17:35.217Z,435.00
2022-08-26T19:18:35.319Z,439.00
2022-08-26T19:19:35.532Z,438.00
2022-08-26T19:20:37.261Z,440.00
2022-08-26T19:21:35.774Z,441.00
2022-08-26T19:22:35.891Z,439.00
2022-08-26T19:23:36.188Z,441.00
2022-08-26T19:24:37.773Z,441.00
2022-08-26T19:25:37.279Z,440.00
2022-08-26T19:26:36.378Z,438.00
2022-08-26T19:27:36.554Z,436.00
2022-08-26T19:28:36.671Z,435.00
2022-08-26T19:29:38.447Z,435.00
2022-08-26T19:30:36.980Z,437.00
2022-08-26T19:31:38.108Z,438.00
2022-08-26T19:32:37.250Z,440.00
2022-08-26T19:33:37.371Z,440.00
2022-08-26T19:34:39.087Z,438.00
2022-08-26T19:35:39.334Z,440.00
2022-08-26T19:36:37.751Z,437.00
2022-08-26T19:37:37.908Z,437.00
2022-08-26T19:38:38.027Z,439.00
2022-08-26T19:39:38.153Z,440.00
2022-08-26T19:40:39.878Z,439.00
2022-08-26T19:41:38.410Z,436.00
2022-08-26T19:42:38.565Z,436.00
2022-08-26T19:43:39.677Z,438.00
2022-08-26T19:44:38.900Z,437.00
2022-08-26T19:45:40.689Z,437.00
2022-08-26T19:46:40.376Z,436.00
2022-08-26T19:47:39.301Z,440.00
2022-08-26T19:48:40.036Z,442.00
2022-08-26T19:49:39.586Z,442.00
2022-08-26T19:50:41.309Z,441.00
2022-08-26T19:51:39.869Z,445.00
2022-08-26T19:52:39.986Z,447.00
2022-08-26T19:53:40.108Z,444.00
2022-08-26T19:54:40.275Z,443.00
2022-08-26T19:55:43.447Z,444.00
2022-08-26T19:56:40.570Z,442.00
2022-08-26T19:57:40.684Z,440.00
2022-08-26T19:58:40.796Z,440.00
2022-08-26T19:59:42.536Z,439.00
2022-08-26T20:00:41.027Z,438.00
2022-08-26T20:01:42.748Z,440.00
2022-08-26T20:02:41.308Z,439.00
2022-08-26T20:03:41.534Z,438.00